createdAt,value
2018-01-21T10:57:23.924Z,7.40
2018-01-21T10:59:53.164Z,6.20
2018-01-21T11:02:20.850Z,5.70
2018-01-21T11:04:53.127Z,5.20
2018-01-21T11:07:21.727Z,4.90
2018-01-21T11:09:49.397Z,4.70
2018-01-21T11:12:17.055Z,4.20
2018-01-21T11:14:44.664Z,3.90
2018-01-21T11:17:13.391Z,3.80
2018-01-21T11:19:41.412Z,3.90
2018-01-21T11:22:13.690Z,4.00
2018-01-21T11:24:41.474Z,4.10
2018-01-21T11:27:09.134Z,3.90
2018-01-21T11:29:36.994Z,4.00
2018-01-21T11:32:04.562Z,3.90
2018-01-21T11:34:32.672Z,3.90
2018-01-21T11:37:00.319Z,3.90
2018-01-21T11:39:28.758Z,3.90
2018-01-21T11:41:56.431Z,3.80
2018-01-21T11:44:24.701Z,3.90
2018-01-21T11:46:52.807Z,3.80
2018-01-21T11:49:20.445Z,3.70
2018-01-21T11:51:48.952Z,3.90
2018-01-21T11:54:16.560Z,3.90
2018-01-21T11:56:44.173Z,4.00
2018-01-21T11:59:12.759Z,3.80
2018-01-21T12:01:40.390Z,3.80
2018-01-21T12:04:11.251Z,3.80
2018-01-21T12:06:38.885Z,3.80
2018-01-21T12:09:06.738Z,3.80
2018-01-21T12:11:34.248Z,3.80
2018-01-21T12:14:01.943Z,3.90
2018-01-21T12:16:29.577Z,4.00
2018-01-21T12:18:57.198Z,4.10
2018-01-21T12:21:25.728Z,4.00
2018-01-21T12:23:54.610Z,3.90
2018-01-21T12:26:22.187Z,3.90
2018-01-21T12:28:49.749Z,3.90
2018-01-21T12:31:17.972Z,3.90
2018-01-21T12:33:46.497Z,3.90
2018-01-21T12:36:14.918Z,3.90
2018-01-21T12:38:43.398Z,3.90
2018-01-21T12:41:11.773Z,3.90
2018-01-21T12:43:39.387Z,4.00
2018-01-21T12:46:07.004Z,4.10
2018-01-21T12:48:34.746Z,4.10
2018-01-21T12:51:02.335Z,4.10
2018-01-21T12:53:29.970Z,4.20
2018-01-21T12:55:57.603Z,4.20
2018-01-21T12:58:25.239Z,4.20
2018-01-21T13:00:53.184Z,4.30
2018-01-21T13:03:20.743Z,4.30
2018-01-21T13:05:48.351Z,4.30
2018-01-21T13:08:16.515Z,4.30
2018-01-21T13:10:44.084Z,4.40
2018-01-21T13:13:11.690Z,4.50
2018-01-21T13:15:39.756Z,4.40
2018-01-21T13:18:07.445Z,4.40
2018-01-21T13:20:38.292Z,4.40
2018-01-21T13:23:05.936Z,4.40
2018-01-21T13:25:33.552Z,4.30
2018-01-21T13:28:01.141Z,4.30
2018-01-21T13:30:30.602Z,4.30
2018-01-21T13:32:58.228Z,4.30
2018-01-21T13:35:25.845Z,4.30
2018-01-21T13:37:53.418Z,4.30
2018-01-21T13:40:21.257Z,4.30
2018-01-21T13:42:49.652Z,4.30
2018-01-21T13:45:18.202Z,4.30
2018-01-21T13:47:47.142Z,4.30
2018-01-21T13:50:14.765Z,4.30
2018-01-21T13:52:42.501Z,4.30
2018-01-21T13:55:10.217Z,4.30
2018-01-21T13:57:37.858Z,4.30
2018-01-21T14:00:06.373Z,4.20
2018-01-21T14:02:34.053Z,4.30
2018-01-21T14:05:01.623Z,4.40
2018-01-21T14:07:29.312Z,4.30
2018-01-21T14:09:56.944Z,4.30
2018-01-21T14:12:25.660Z,4.30
2018-01-21T14:14:54.603Z,4.40
2018-01-21T14:17:22.314Z,4.40
2018-01-21T14:19:49.851Z,4.40
2018-01-21T14:22:17.482Z,4.40
2018-01-21T14:24:45.082Z,4.40
2018-01-21T14:27:12.632Z,4.40
2018-01-21T14:29:40.233Z,4.40
2018-01-21T14:32:07.899Z,4.40
2018-01-21T14:34:36.304Z,4.30
2018-01-21T14:37:03.988Z,4.40
2018-01-21T14:39:31.565Z,4.40
2018-01-21T14:42:00.150Z,4.40
2018-01-21T14:44:27.810Z,4.30
2018-01-21T14:46:55.563Z,4.40
2018-01-21T14:49:23.895Z,4.30
2018-01-21T14:51:51.884Z,4.20
2018-01-21T14:54:19.598Z,4.20
2018-01-21T14:56:47.179Z,4.20
2018-01-21T14:59:14.736Z,4.20
2018-01-21T15:01:42.429Z,4.20
2018-01-21T15:04:10.943Z,4.10
2018-01-21T15:06:38.547Z,4.00
2018-01-21T15:09:06.606Z,4.10
2018-01-21T15:11:34.246Z,4.10
2018-01-21T15:14:02.659Z,4.10
2018-01-21T15:16:30.311Z,4.10
2018-01-21T15:18:57.907Z,4.10
2018-01-21T15:21:25.461Z,4.00
2018-01-21T15:23:54.005Z,4.00
2018-01-21T15:26:21.936Z,4.10
2018-01-21T15:28:49.512Z,4.00
2018-01-21T15:31:17.561Z,4.10
2018-01-21T15:33:45.187Z,4.10
2018-01-21T15:36:12.796Z,4.00
2018-01-21T15:38:41.357Z,3.90
2018-01-21T15:41:09.108Z,3.90
2018-01-21T15:43:37.104Z,3.80
2018-01-21T15:46:05.179Z,3.90
2018-01-21T15:48:33.698Z,3.90
2018-01-21T15:51:01.282Z,3.90
2018-01-21T15:53:28.857Z,3.80
2018-01-21T15:55:56.399Z,3.90
2018-01-21T15:58:24.646Z,3.90
2018-01-21T16:00:52.481Z,3.90
2018-01-21T16:03:20.117Z,3.90
2018-01-21T16:05:48.554Z,4.00
2018-01-21T16:08:16.214Z,4.00
2018-01-21T16:10:43.934Z,4.10
2018-01-21T16:13:11.545Z,4.10
2018-01-21T16:15:39.260Z,4.00
2018-01-21T16:18:06.854Z,4.00
2018-01-21T16:20:34.439Z,4.00
2018-01-21T16:23:02.278Z,4.00
2018-01-21T16:25:29.855Z,4.00
2018-01-21T16:27:57.394Z,4.10
2018-01-21T16:30:25.020Z,4.10
2018-01-21T16:32:53.309Z,4.10
2018-01-21T16:35:21.392Z,4.10
2018-01-21T16:38:00.895Z,4.10
2018-01-21T16:40:28.448Z,4.10
2018-01-21T16:42:56.036Z,4.00
2018-01-21T16:45:23.675Z,4.00
2018-01-21T16:47:51.350Z,3.90
2018-01-21T16:50:18.907Z,3.90
2018-01-21T16:52:46.891Z,3.90
2018-01-21T16:55:14.522Z,3.90
2018-01-21T16:57:42.861Z,3.90
2018-01-21T17:00:10.507Z,3.90
2018-01-21T17:02:38.506Z,3.80
2018-01-21T17:05:08.170Z,3.80
2018-01-21T17:07:35.858Z,3.80
2018-01-21T17:10:04.376Z,3.70
2018-01-21T17:12:32.010Z,3.80
2018-01-21T17:14:59.724Z,3.80
2018-01-21T17:17:27.458Z,3.70
2018-01-21T17:19:54.978Z,3.70
2018-01-21T17:22:24.006Z,3.70
2018-01-21T17:24:51.636Z,3.70
2018-01-21T17:27:20.522Z,3.60
2018-01-21T17:29:50.268Z,3.70
2018-01-21T17:32:17.898Z,3.60
2018-01-21T17:34:45.492Z,3.50
2018-01-21T17:37:13.090Z,3.40
2018-01-21T17:39:41.086Z,3.30
2018-01-21T17:42:08.695Z,3.30
2018-01-21T17:44:37.054Z,3.10
2018-01-21T17:47:04.571Z,3.10
2018-01-21T17:49:32.226Z,3.20
2018-01-21T17:51:59.802Z,3.30
2018-01-21T17:54:27.381Z,3.30
2018-01-21T17:56:54.894Z,3.20
2018-01-21T17:59:22.478Z,3.10
2018-01-21T18:01:50.104Z,3.10
2018-01-21T18:04:18.002Z,2.90
2018-01-21T18:06:45.626Z,2.90
2018-01-21T18:09:13.588Z,2.80
2018-01-21T18:11:41.516Z,2.80
2018-01-21T18:14:09.152Z,2.80
2018-01-21T18:16:36.733Z,2.80
2018-01-21T18:19:04.303Z,2.60
2018-01-21T18:21:31.839Z,2.70
2018-01-21T18:23:59.424Z,2.60
2018-01-21T18:26:26.962Z,2.60
2018-01-21T18:28:54.585Z,2.50
2018-01-21T18:31:22.174Z,2.50
2018-01-21T18:33:49.759Z,2.40
2018-01-21T18:36:17.430Z,2.30
2018-01-21T18:38:45.017Z,2.20
2018-01-21T18:41:12.645Z,2.10
2018-01-21T18:43:40.444Z,2.20
2018-01-21T18:46:08.151Z,2.10
2018-01-21T18:48:35.790Z,2.10
2018-01-21T18:51:03.448Z,2.10
2018-01-21T18:53:30.988Z,2.10
2018-01-21T18:55:58.606Z,2.00
2018-01-21T18:58:26.219Z,1.90
2018-01-21T19:00:53.815Z,2.00
2018-01-21T19:03:21.324Z,2.00
2018-01-21T19:05:48.934Z,2.00
2018-01-21T19:08:17.079Z,2.00
2018-01-21T19:10:44.669Z,2.00
2018-01-21T19:13:12.313Z,2.10
2018-01-21T19:15:39.846Z,2.10
2018-01-21T19:18:07.527Z,2.10
2018-01-21T19:20:35.157Z,2.00
2018-01-21T19:23:02.748Z,2.00
2018-01-21T19:25:31.561Z,2.00
2018-01-21T19:27:59.173Z,2.00
2018-01-21T19:30:26.732Z,2.00
2018-01-21T19:32:54.427Z,1.80
2018-01-21T19:35:22.082Z,1.90
2018-01-21T19:37:49.700Z,1.80
2018-01-21T19:40:23.037Z,1.80
2018-01-21T19:42:54.466Z,1.80
2018-01-21T19:45:22.058Z,1.90
2018-01-21T19:47:49.762Z,2.00
2018-01-21T19:50:17.479Z,2.00
2018-01-21T19:52:45.143Z,2.00
2018-01-21T19:55:12.890Z,2.00
2018-01-21T19:57:40.597Z,2.10
2018-01-21T20:00:09.280Z,2.20
2018-01-21T20:02:36.923Z,2.20
2018-01-21T20:05:05.184Z,2.20
2018-01-21T20:07:32.798Z,2.20
2018-01-21T20:10:00.440Z,2.20
2018-01-21T20:12:28.054Z,2.20
2018-01-21T20:14:55.636Z,2.10
2018-01-21T20:17:23.367Z,2.00
2018-01-21T20:19:51.024Z,2.00
2018-01-21T20:22:18.695Z,2.00
2018-01-21T20:24:47.144Z,2.00
2018-01-21T20:27:15.524Z,2.00
2018-01-21T20:29:43.218Z,1.90
2018-01-21T20:32:10.856Z,2.00
2018-01-21T20:34:38.497Z,2.00
2018-01-21T20:37:06.098Z,2.10
2018-01-21T20:39:33.701Z,2.10
2018-01-21T20:42:01.262Z,2.10
2018-01-21T20:44:28.960Z,2.10
2018-01-21T20:46:57.249Z,2.10
2018-01-21T20:49:25.188Z,2.10
2018-01-21T20:51:59.303Z,2.00
2018-01-21T20:54:32.506Z,2.10
2018-01-21T20:57:00.137Z,2.00
2018-01-21T20:59:27.907Z,2.10
2018-01-21T21:01:55.553Z,2.20
2018-01-21T21:04:23.221Z,2.20
2018-01-21T21:06:50.899Z,2.10
2018-01-21T21:09:18.411Z,2.10
2018-01-21T21:11:46.010Z,2.20
2018-01-21T21:14:13.585Z,2.10
2018-01-21T21:16:41.124Z,2.10
2018-01-21T21:19:08.760Z,2.10
2018-01-21T21:21:36.765Z,2.20
2018-01-21T21:24:04.345Z,2.20
2018-01-21T21:26:31.994Z,2.20
2018-01-21T21:28:59.548Z,2.20
2018-01-21T21:31:27.114Z,2.30
2018-01-21T21:33:54.786Z,2.20
2018-01-21T21:36:22.400Z,2.20
2018-01-21T21:38:49.959Z,2.20
2018-01-21T21:41:17.548Z,2.10
2018-01-21T21:43:45.155Z,2.20
2018-01-21T21:46:12.695Z,2.20
2018-01-21T21:48:40.302Z,2.20
2018-01-21T21:51:07.837Z,2.20
2018-01-21T21:53:35.403Z,2.20
2018-01-21T21:56:03.022Z,2.20
2018-01-21T21:58:31.065Z,2.10
2018-01-21T22:00:58.629Z,2.20
2018-01-21T22:03:26.146Z,2.20
2018-01-21T22:05:53.690Z,2.20
2018-01-21T22:08:21.694Z,2.10
2018-01-21T22:10:49.678Z,2.00
2018-01-21T22:13:17.247Z,2.00
2018-01-21T22:15:44.816Z,2.10
2018-01-21T22:18:12.381Z,2.10
2018-01-21T22:20:39.962Z,2.20
2018-01-21T22:23:07.565Z,2.20
2018-01-21T22:25:35.162Z,2.20
2018-01-21T22:28:02.727Z,2.20
2018-01-21T22:30:30.290Z,2.20
2018-01-21T22:32:58.294Z,2.20
2018-01-21T22:35:25.839Z,2.20
2018-01-21T22:37:53.450Z,2.10
2018-01-21T22:40:21.051Z,2.00
2018-01-21T22:42:48.979Z,2.00
2018-01-21T22:45:16.527Z,2.00
2018-01-21T22:47:44.126Z,2.00
2018-01-21T22:50:12.107Z,1.90
2018-01-21T22:52:39.660Z,1.90
2018-01-21T22:55:07.578Z,1.80
2018-01-21T22:57:35.175Z,1.80
2018-01-21T23:00:02.730Z,1.80
2018-01-21T23:02:30.286Z,1.80
2018-01-21T23:04:57.898Z,1.90
2018-01-21T23:07:25.422Z,1.80
2018-01-21T23:09:53.384Z,1.90
2018-01-21T23:12:21.351Z,1.80
2018-01-21T23:14:48.867Z,1.80
2018-01-21T23:17:16.465Z,1.70
2018-01-21T23:19:43.985Z,1.70
2018-01-21T23:22:11.530Z,1.80
2018-01-21T23:24:39.089Z,1.80
2018-01-21T23:27:06.634Z,1.90
2018-01-21T23:29:34.207Z,1.80
2018-01-21T23:32:01.764Z,1.90
2018-01-21T23:34:29.313Z,1.90
2018-01-21T23:36:56.934Z,1.80
2018-01-21T23:39:24.921Z,1.90
2018-01-21T23:41:53.460Z,1.90
2018-01-21T23:44:21.019Z,1.80
2018-01-21T23:46:48.582Z,2.00
2018-01-21T23:49:16.204Z,2.00
2018-01-21T23:51:43.827Z,1.90
2018-01-21T23:54:12.571Z,1.80
2018-01-21T23:56:40.112Z,1.80
2018-01-21T23:59:07.616Z,1.90
